createdAt,value
2018-10-01T00:01:52.601Z,1.47
2018-10-01T00:04:21.578Z,2.30
2018-10-01T00:06:50.478Z,1.40
2018-10-01T00:09:19.688Z,1.50
2018-10-01T00:11:49.237Z,1.30
2018-10-01T00:14:18.323Z,1.30
2018-10-01T00:16:47.310Z,1.40
2018-10-01T00:19:22.046Z,1.60
2018-10-01T00:21:56.385Z,1.20
2018-10-01T00:24:25.654Z,1.73
2018-10-01T00:26:54.882Z,1.80
2018-10-01T00:29:23.850Z,2.13
2018-10-01T00:31:52.825Z,2.03
2018-10-01T00:34:21.799Z,1.37
2018-10-01T00:36:51.232Z,1.97
2018-10-01T00:39:20.287Z,1.30
2018-10-01T00:41:49.351Z,1.30
2018-10-01T00:44:18.478Z,1.70
2018-10-01T00:46:47.437Z,1.80
2018-10-01T00:49:16.410Z,1.47
2018-10-01T00:51:45.322Z,1.67
2018-10-01T00:54:14.281Z,1.90
2018-10-01T00:56:43.233Z,1.80
2018-10-01T00:59:12.196Z,2.47
2018-10-01T01:01:41.172Z,1.87
2018-10-01T01:06:45.293Z,1.83
2018-10-01T01:09:14.303Z,1.93
2018-10-01T01:11:43.340Z,1.73
2018-10-01T01:14:12.273Z,2.27
2018-10-01T01:16:41.223Z,1.50
2018-10-01T01:19:10.152Z,1.63
2018-10-01T01:21:39.170Z,2.10
2018-10-01T01:24:08.326Z,2.43
2018-10-01T01:26:37.386Z,2.00
2018-10-01T01:29:06.342Z,2.33
2018-10-01T01:31:35.294Z,2.73
2018-10-01T01:34:04.327Z,2.77
2018-10-01T01:36:33.304Z,2.50
2018-10-01T01:39:02.291Z,2.50
2018-10-01T01:41:31.281Z,2.83
2018-10-01T01:44:00.238Z,1.93
2018-10-01T01:46:29.304Z,1.67
2018-10-01T01:48:58.381Z,1.80
2018-10-01T01:51:27.503Z,1.83
2018-10-01T01:53:56.524Z,2.20
2018-10-01T01:56:25.523Z,1.93
2018-10-01T01:58:54.555Z,1.70
2018-10-01T02:01:24.049Z,2.70
2018-10-01T02:03:52.988Z,2.20
2018-10-01T02:06:21.961Z,2.30
2018-10-01T02:08:50.940Z,2.60
2018-10-01T02:11:19.840Z,2.83
2018-10-01T02:13:48.775Z,2.63
2018-10-01T02:16:17.841Z,2.53
2018-10-01T02:18:46.923Z,2.83
2018-10-01T02:21:15.854Z,2.17
2018-10-01T02:23:44.843Z,2.13
2018-10-01T02:26:13.843Z,3.50
2018-10-01T02:28:42.930Z,2.40
2018-10-01T02:31:12.279Z,2.77
2018-10-01T02:33:41.324Z,2.27
2018-10-01T02:36:10.320Z,2.50
2018-10-01T02:38:39.316Z,2.00
2018-10-01T02:41:08.454Z,2.53
2018-10-01T02:43:37.727Z,2.90
2018-10-01T02:46:06.652Z,2.77
2018-10-01T02:48:35.583Z,2.60
2018-10-01T02:51:04.565Z,2.60
2018-10-01T02:53:38.919Z,2.47
2018-10-01T02:56:08.130Z,2.27
2018-10-01T02:58:37.054Z,3.00
2018-10-01T03:01:06.074Z,3.03
2018-10-01T03:03:35.073Z,2.90
2018-10-01T03:06:04.088Z,2.67
2018-10-01T03:08:33.107Z,2.70
2018-10-01T03:11:02.022Z,2.50
2018-10-01T03:13:30.966Z,2.97
2018-10-01T03:15:59.917Z,3.00
2018-10-01T03:18:28.858Z,3.87
2018-10-01T03:20:57.795Z,3.40
2018-10-01T03:23:26.781Z,3.57
2018-10-01T03:25:55.837Z,4.10
2018-10-01T03:28:24.913Z,3.00
2018-10-01T03:30:53.854Z,4.27
2018-10-01T03:33:22.808Z,3.10
2018-10-01T03:35:51.746Z,3.07
2018-10-01T03:38:20.711Z,3.23
2018-10-01T03:40:49.650Z,3.57
2018-10-01T03:43:18.608Z,3.90
2018-10-01T03:45:47.574Z,4.13
2018-10-01T03:48:16.531Z,3.30
2018-10-01T03:50:45.535Z,3.47
2018-10-01T03:53:14.512Z,5.10
2018-10-01T03:55:43.434Z,4.40
2018-10-01T03:58:12.413Z,2.87
2018-10-01T04:00:41.480Z,4.07
2018-10-01T04:03:10.488Z,3.07
2018-10-01T04:05:39.353Z,4.60
2018-10-01T04:08:08.433Z,3.40
2018-10-01T04:10:37.385Z,3.67
2018-10-01T04:13:06.307Z,3.23
2018-10-01T04:15:35.290Z,4.00
2018-10-01T04:18:04.186Z,3.70
2018-10-01T04:20:33.168Z,4.20
2018-10-01T04:23:02.167Z,2.70
2018-10-01T04:25:31.080Z,3.30
2018-10-01T04:28:00.034Z,3.10
2018-10-01T04:30:29.015Z,2.13
2018-10-01T04:32:57.955Z,2.87
2018-10-01T04:35:26.904Z,2.13
2018-10-01T04:37:55.841Z,1.83
2018-10-01T04:40:24.765Z,2.33
2018-10-01T04:42:53.737Z,1.50
2018-10-01T04:45:22.827Z,1.47
2018-10-01T04:47:51.750Z,1.40
2018-10-01T04:50:20.693Z,1.40
2018-10-01T04:52:49.687Z,1.27
2018-10-01T04:55:18.600Z,1.43
2018-10-01T04:57:47.604Z,1.30
2018-10-01T05:00:16.518Z,1.00
2018-10-01T05:02:45.491Z,1.10
2018-10-01T05:05:14.460Z,0.90
2018-10-01T05:07:43.425Z,0.60
2018-10-01T05:10:12.322Z,0.87
2018-10-01T05:12:41.304Z,1.00
2018-10-01T05:15:10.236Z,0.80
2018-10-01T05:17:39.170Z,1.50
2018-10-01T05:20:08.170Z,0.93
2018-10-01T05:22:37.238Z,1.00
2018-10-01T05:25:06.176Z,0.60
2018-10-01T05:27:35.103Z,1.10
2018-10-01T05:30:04.107Z,0.60
2018-10-01T05:32:33.051Z,0.90
2018-10-01T05:35:02.041Z,1.30
2018-10-01T05:37:30.970Z,1.10
2018-10-01T05:39:59.974Z,0.87
2018-10-01T05:42:28.898Z,1.53
2018-10-01T05:44:57.845Z,1.17
2018-10-01T05:47:26.780Z,1.27
2018-10-01T05:49:55.715Z,1.67
2018-10-01T05:52:24.715Z,1.50
2018-10-01T05:54:53.612Z,1.80
2018-10-01T05:57:22.579Z,1.50
2018-10-01T05:59:51.531Z,1.47
2018-10-01T06:02:20.681Z,1.53
2018-10-01T06:04:49.674Z,2.57
2018-10-01T06:07:18.568Z,1.70
2018-10-01T06:09:47.502Z,1.70
2018-10-01T06:12:16.429Z,2.43
2018-10-01T06:14:45.361Z,2.20
2018-10-01T06:17:14.323Z,1.77
2018-10-01T06:19:43.245Z,2.20
2018-10-01T06:22:12.192Z,2.43
2018-10-01T06:24:41.115Z,2.07
2018-10-01T06:27:10.046Z,2.40
2018-10-01T06:29:38.998Z,2.90
2018-10-01T06:32:07.971Z,2.50
2018-10-01T06:34:37.041Z,2.17
2018-10-01T06:37:05.941Z,2.83
2018-10-01T06:39:34.872Z,2.50
2018-10-01T06:42:03.951Z,2.17
2018-10-01T06:44:32.838Z,2.47
2018-10-01T06:47:01.754Z,2.00
2018-10-01T06:49:30.830Z,2.20
2018-10-01T06:51:59.745Z,1.90
2018-10-01T06:54:28.676Z,2.00
2018-10-01T06:56:57.642Z,2.37
2018-10-01T06:59:26.613Z,2.23
2018-10-01T07:01:55.692Z,1.70
2018-10-01T07:04:24.620Z,1.83
2018-10-01T07:06:53.561Z,2.33
2018-10-01T07:09:22.481Z,2.00
2018-10-01T07:11:51.421Z,2.00
2018-10-01T07:14:21.211Z,1.57
2018-10-01T07:16:50.194Z,1.70
2018-10-01T07:19:19.105Z,1.57
2018-10-01T07:21:48.083Z,1.87
2018-10-01T07:24:17.002Z,2.63
2018-10-01T07:26:45.942Z,1.47
2018-10-01T07:29:14.882Z,1.63
2018-10-01T07:31:43.843Z,1.37
2018-10-01T07:34:12.778Z,1.57
2018-10-01T07:36:41.867Z,1.53
2018-10-01T07:39:10.787Z,1.40
2018-10-01T07:41:48.247Z,1.20
2018-10-01T07:44:17.202Z,1.20
2018-10-01T07:46:46.114Z,1.40
2018-10-01T07:49:15.103Z,1.47
2018-10-01T07:51:44.075Z,1.13
2018-10-01T07:54:12.983Z,1.10
2018-10-01T07:56:41.914Z,1.00
2018-10-01T07:59:14.896Z,1.20
2018-10-01T08:01:43.898Z,0.97
2018-10-01T08:04:12.820Z,0.90
2018-10-01T08:06:41.731Z,0.80
2018-10-01T08:09:11.418Z,1.10
2018-10-01T08:11:40.405Z,0.97
2018-10-01T08:14:09.445Z,0.83
2018-10-01T08:16:38.385Z,0.90
2018-10-01T08:19:07.329Z,0.80
2018-10-01T08:21:36.262Z,0.80
2018-10-01T08:24:05.234Z,1.30
2018-10-01T08:26:34.235Z,1.00
2018-10-01T08:29:03.103Z,0.97
2018-10-01T08:31:32.526Z,1.00
2018-10-01T08:34:01.493Z,0.80
2018-10-01T08:36:30.456Z,0.83
2018-10-01T08:38:59.437Z,0.60
2018-10-01T08:41:28.402Z,0.90
2018-10-01T08:43:57.378Z,0.80
2018-10-01T08:46:26.412Z,1.40
2018-10-01T08:48:59.734Z,1.00
2018-10-01T08:52:08.007Z,0.40
2018-10-01T08:54:41.509Z,0.50
2018-10-01T08:57:10.460Z,0.60
2018-10-01T08:59:39.419Z,0.80
2018-10-01T09:02:08.398Z,1.00
2018-10-01T09:04:37.325Z,0.60
2018-10-01T09:07:06.257Z,0.73
2018-10-01T09:09:35.263Z,0.60
2018-10-01T09:12:04.196Z,0.63
2018-10-01T09:14:33.223Z,0.67
2018-10-01T09:17:02.151Z,0.60
2018-10-01T09:19:31.238Z,0.70
2018-10-01T09:22:00.152Z,1.00
2018-10-01T09:24:29.074Z,0.93
2018-10-01T09:26:58.030Z,0.90
2018-10-01T09:29:27.021Z,0.43
2018-10-01T09:31:55.918Z,0.70
2018-10-01T09:34:25.238Z,1.13
2018-10-01T09:36:54.173Z,0.60
2018-10-01T09:39:23.169Z,1.27
2018-10-01T09:41:52.270Z,0.83
2018-10-01T09:44:21.211Z,0.80
2018-10-01T09:46:50.132Z,0.90
2018-10-01T09:49:19.653Z,0.60
2018-10-01T09:51:49.817Z,0.80
2018-10-01T09:54:18.791Z,0.90
2018-10-01T09:56:47.729Z,0.53
2018-10-01T09:59:16.702Z,0.67
2018-10-01T10:01:45.692Z,0.67
2018-10-01T10:04:14.573Z,1.20
2018-10-01T10:06:43.566Z,0.80
2018-10-01T10:09:12.485Z,0.80
2018-10-01T10:11:41.591Z,1.70
2018-10-01T10:14:10.598Z,0.67
2018-10-01T10:16:39.588Z,0.50
2018-10-01T10:19:08.457Z,0.83
2018-10-01T10:21:37.538Z,0.70
2018-10-01T10:24:06.561Z,0.40
2018-10-01T10:26:35.506Z,1.00
2018-10-01T10:29:04.475Z,0.67
2018-10-01T10:31:33.427Z,0.40
2018-10-01T10:34:02.424Z,0.30
2018-10-01T10:36:31.327Z,0.50
2018-10-01T10:39:00.308Z,0.47
2018-10-01T10:41:29.192Z,0.37
2018-10-01T10:43:58.099Z,0.57
2018-10-01T10:46:27.178Z,0.60
2018-10-01T10:48:56.270Z,0.97
2018-10-01T10:51:25.260Z,0.40
2018-10-01T10:53:54.424Z,0.60
2018-10-01T10:56:23.351Z,0.90
2018-10-01T10:58:52.290Z,0.50
2018-10-01T11:01:21.227Z,1.10
2018-10-01T11:03:50.206Z,0.67
2018-10-01T11:06:19.117Z,0.60
2018-10-01T11:08:48.165Z,0.30
2018-10-01T11:11:17.247Z,0.60
2018-10-01T11:13:46.218Z,0.30
2018-10-01T11:16:15.107Z,0.80
2018-10-01T11:18:44.269Z,0.63
2018-10-01T11:21:13.057Z,0.97
2018-10-01T11:23:41.974Z,0.60
2018-10-01T11:26:11.031Z,0.57
2018-10-01T11:28:39.999Z,0.37
2018-10-01T11:31:08.940Z,0.80
2018-10-01T11:33:37.974Z,0.50
2018-10-01T11:36:06.815Z,0.70
2018-10-01T11:38:35.736Z,0.30
2018-10-01T11:41:04.765Z,0.60
2018-10-01T11:43:33.807Z,0.40
2018-10-01T11:46:02.700Z,0.50
2018-10-01T11:48:31.650Z,0.40
2018-10-01T11:51:00.647Z,0.27
2018-10-01T11:53:29.514Z,0.20
2018-10-01T11:55:58.436Z,0.20
2018-10-01T11:58:27.397Z,0.10
2018-10-01T12:00:56.324Z,0.20
2018-10-01T12:03:25.359Z,0.30
2018-10-01T12:05:54.171Z,0.10
2018-10-01T12:08:23.141Z,0.33
2018-10-01T12:10:52.071Z,0.27
2018-10-01T12:13:21.010Z,0.83
2018-10-01T12:15:50.115Z,0.50
2018-10-01T12:18:18.959Z,0.23
2018-10-01T12:20:47.934Z,0.43
2018-10-01T12:23:16.898Z,0.43
2018-10-01T12:25:45.830Z,0.47
2018-10-01T12:28:14.812Z,0.30
2018-10-01T12:30:43.957Z,0.30
2018-10-01T12:33:12.920Z,0.20
2018-10-01T12:35:41.837Z,0.50
2018-10-01T12:38:10.756Z,0.50
2018-10-01T12:40:39.781Z,0.57
2018-10-01T12:43:08.734Z,0.43
2018-10-01T12:45:37.752Z,0.40
2018-10-01T12:48:06.707Z,0.40
2018-10-01T12:50:35.869Z,0.70
2018-10-01T12:53:04.586Z,1.13
2018-10-01T12:55:33.557Z,0.50
2018-10-01T12:58:02.502Z,0.40
2018-10-01T13:00:31.453Z,0.63
2018-10-01T13:03:00.545Z,0.50
2018-10-01T13:05:29.453Z,0.60
2018-10-01T13:08:02.322Z,0.40
2018-10-01T13:10:31.287Z,0.40
2018-10-01T13:13:00.282Z,0.53
2018-10-01T13:15:29.198Z,0.57
2018-10-01T13:17:58.184Z,0.60
2018-10-01T13:20:27.061Z,0.30
2018-10-01T13:22:56.131Z,0.30
2018-10-01T13:25:25.073Z,0.70
2018-10-01T13:27:53.998Z,0.40
2018-10-01T13:30:23.738Z,0.37
2018-10-01T13:32:52.521Z,0.40
2018-10-01T13:35:21.493Z,0.57
2018-10-01T13:37:50.492Z,0.40
2018-10-01T13:40:19.395Z,0.40
2018-10-01T13:42:48.399Z,0.70
2018-10-01T13:45:17.293Z,0.50
2018-10-01T13:47:46.254Z,1.37
2018-10-01T13:50:15.227Z,0.90
2018-10-01T13:52:44.178Z,1.77
2018-10-01T13:55:13.092Z,0.40
2018-10-01T13:57:42.027Z,0.87
2018-10-01T14:00:10.941Z,0.40
2018-10-01T14:02:39.883Z,0.20
2018-10-01T14:05:08.847Z,0.23
2018-10-01T14:07:37.885Z,0.50
2018-10-01T14:10:06.714Z,0.67
2018-10-01T14:12:35.815Z,0.73
2018-10-01T14:15:04.987Z,0.43
2018-10-01T14:17:33.988Z,0.50
2018-10-01T14:20:03.383Z,0.80
2018-10-01T14:22:32.050Z,0.37
2018-10-01T14:25:01.089Z,0.50
2018-10-01T14:27:29.947Z,0.60
2018-10-01T14:29:58.934Z,0.87
2018-10-01T14:32:28.028Z,0.90
2018-10-01T14:34:57.035Z,0.50
2018-10-01T14:37:26.026Z,0.80
2018-10-01T14:39:55.062Z,0.37
2018-10-01T14:42:24.044Z,0.40
2018-10-01T14:44:52.954Z,0.50
2018-10-01T14:47:21.918Z,0.73
2018-10-01T14:49:50.907Z,0.80
2018-10-01T14:52:19.875Z,0.50
2018-10-01T14:54:48.976Z,0.67
2018-10-01T14:57:18.338Z,0.67
2018-10-01T14:59:47.342Z,0.60
2018-10-01T15:02:16.382Z,0.50
2018-10-01T15:04:45.303Z,0.50
2018-10-01T15:07:14.225Z,1.13
2018-10-01T15:09:43.264Z,1.00
2018-10-01T15:12:12.330Z,1.00
2018-10-01T15:14:41.180Z,0.70
2018-10-01T15:17:10.172Z,0.70
2018-10-01T15:19:39.110Z,0.80
2018-10-01T15:22:08.030Z,0.57
2018-10-01T15:24:37.129Z,0.50
2018-10-01T15:27:06.061Z,0.40
2018-10-01T15:29:34.966Z,1.00
2018-10-01T15:32:03.936Z,0.60
2018-10-01T15:34:32.876Z,0.47
2018-10-01T15:37:01.966Z,0.40
2018-10-01T15:39:31.067Z,0.40
2018-10-01T15:42:00.025Z,0.37
2018-10-01T15:44:28.975Z,0.50
2018-10-01T15:46:57.987Z,0.87
2018-10-01T15:49:26.893Z,0.50
2018-10-01T15:51:55.885Z,1.07
2018-10-01T15:54:24.787Z,0.50
2018-10-01T15:56:53.733Z,0.50
2018-10-01T15:59:22.667Z,1.00
2018-10-01T16:01:51.636Z,0.70
2018-10-01T16:04:20.554Z,0.43
2018-10-01T16:06:49.497Z,0.47
2018-10-01T16:09:18.508Z,0.73
2018-10-01T16:11:47.577Z,0.27
2018-10-01T16:14:16.542Z,0.47
2018-10-01T16:16:45.996Z,0.53
2018-10-01T16:19:15.438Z,0.83
2018-10-01T16:21:46.259Z,0.60
2018-10-01T16:24:15.520Z,0.60
2018-10-01T16:26:44.538Z,0.50
2018-10-01T16:29:13.507Z,0.60
2018-10-01T16:31:42.407Z,0.30
2018-10-01T16:34:11.355Z,0.40
2018-10-01T16:36:40.312Z,1.03
2018-10-01T16:39:10.903Z,1.00
2018-10-01T16:41:39.863Z,0.47
2018-10-01T16:44:08.908Z,0.50
2018-10-01T16:46:37.858Z,0.60
2018-10-01T16:49:06.890Z,0.70
2018-10-01T16:51:35.820Z,0.80
2018-10-01T16:54:04.815Z,1.03
2018-10-01T16:56:33.772Z,0.60
2018-10-01T16:59:07.340Z,0.70
2018-10-01T17:01:41.661Z,0.67
2018-10-01T17:04:17.739Z,0.80
2018-10-01T17:06:53.825Z,0.40
2018-10-01T17:09:22.819Z,0.40
2018-10-01T17:11:51.806Z,0.67
2018-10-01T17:14:20.797Z,0.90
2018-10-01T17:16:49.717Z,0.50
2018-10-01T17:19:18.840Z,0.50
2018-10-01T17:21:47.861Z,1.07
2018-10-01T17:24:16.848Z,0.90
2018-10-01T17:26:45.797Z,0.93
2018-10-01T17:29:14.787Z,0.90
2018-10-01T17:31:43.764Z,0.70
2018-10-01T17:34:12.743Z,1.00
2018-10-01T17:36:41.717Z,0.30
2018-10-01T17:39:11.141Z,0.50
2018-10-01T17:41:40.856Z,0.20
2018-10-01T17:44:09.878Z,0.87
2018-10-01T17:46:38.839Z,1.00
2018-10-01T17:49:07.834Z,0.50
2018-10-01T17:51:36.808Z,0.50
2018-10-01T17:54:05.824Z,1.10
2018-10-01T17:56:34.762Z,0.40
2018-10-01T17:59:03.695Z,0.83
2018-10-01T18:01:32.664Z,3.15
2018-10-01T18:04:02.146Z,0.30
2018-10-01T18:06:31.125Z,1.40
2018-10-01T18:09:00.164Z,0.60
2018-10-01T18:11:29.348Z,0.43
2018-10-01T18:13:58.293Z,0.50
2018-10-01T18:16:27.281Z,0.50
2018-10-01T18:18:56.217Z,0.50
2018-10-01T18:21:25.131Z,0.40
2018-10-01T18:23:54.145Z,0.50
2018-10-01T18:26:23.105Z,0.47
2018-10-01T18:28:52.103Z,0.60
2018-10-01T18:31:21.062Z,0.80
2018-10-01T18:33:50.020Z,0.90
2018-10-01T18:36:19.096Z,0.50
2018-10-01T18:38:48.027Z,0.67
2018-10-01T18:41:16.979Z,0.80
2018-10-01T18:43:46.046Z,0.60
2018-10-01T18:46:14.920Z,0.50
2018-10-01T18:48:43.886Z,0.53
2018-10-01T18:51:12.821Z,0.70
2018-10-01T18:53:41.850Z,0.50
2018-10-01T18:56:10.814Z,0.50
2018-10-01T18:58:39.912Z,0.30
2018-10-01T19:01:08.938Z,0.60
2018-10-01T19:03:37.970Z,0.50
2018-10-01T19:06:07.033Z,0.70
2018-10-01T19:08:35.973Z,1.27
2018-10-01T19:11:04.964Z,0.87
2018-10-01T19:13:33.972Z,0.93
2018-10-01T19:16:02.971Z,0.93
2018-10-01T19:18:31.906Z,1.07
2018-10-01T19:21:00.925Z,0.80
2018-10-01T19:23:29.811Z,0.70
2018-10-01T19:25:58.836Z,1.00
2018-10-01T19:28:27.781Z,0.70
2018-10-01T19:30:56.751Z,0.87
2018-10-01T19:33:25.827Z,0.77
2018-10-01T19:35:54.745Z,0.57
2018-10-01T19:38:23.705Z,1.07
2018-10-01T19:40:52.669Z,0.43
2018-10-01T19:43:21.673Z,1.00
2018-10-01T19:45:50.727Z,0.60
2018-10-01T19:48:19.659Z,0.90
2018-10-01T19:50:48.675Z,4.20
2018-10-01T19:53:17.687Z,1.60
2018-10-01T19:55:46.632Z,1.07
2018-10-01T19:58:15.606Z,2.47
2018-10-01T20:00:44.591Z,0.90
2018-10-01T20:03:13.664Z,0.70
2018-10-01T20:05:42.621Z,0.70
2018-10-01T20:08:11.588Z,0.67
2018-10-01T20:10:40.577Z,2.57
2018-10-01T20:13:09.470Z,2.10
2018-10-01T20:15:38.457Z,1.20
2018-10-01T20:18:07.394Z,0.70
2018-10-01T20:20:36.330Z,0.73
2018-10-01T20:23:05.282Z,0.80
2018-10-01T20:25:34.308Z,0.73
2018-10-01T20:28:03.931Z,0.60
2018-10-01T20:30:32.808Z,0.57
2018-10-01T20:33:01.838Z,0.50
2018-10-01T20:35:30.967Z,0.90
2018-10-01T20:38:00.154Z,0.60
2018-10-01T20:40:29.028Z,0.40
2018-10-01T20:42:57.982Z,0.60
2018-10-01T20:45:26.927Z,0.80
2018-10-01T20:47:55.902Z,0.83
2018-10-01T20:50:24.938Z,0.53
2018-10-01T20:52:53.948Z,0.70
2018-10-01T20:55:22.777Z,0.70
2018-10-01T20:57:51.727Z,0.50
2018-10-01T21:00:20.675Z,0.93
2018-10-01T21:02:49.626Z,0.83
2018-10-01T21:05:18.581Z,0.30
2018-10-01T21:07:47.560Z,0.47
2018-10-01T21:10:16.509Z,0.70
2018-10-01T21:12:45.463Z,1.00
2018-10-01T21:15:14.419Z,0.50
2018-10-01T21:17:43.490Z,0.90
2018-10-01T21:20:12.460Z,0.40
2018-10-01T21:22:41.517Z,0.80
2018-10-01T21:25:10.452Z,0.50
2018-10-01T21:27:39.393Z,0.37
2018-10-01T21:30:08.349Z,0.60
2018-10-01T21:32:37.269Z,0.57
2018-10-01T21:35:06.199Z,0.30
2018-10-01T21:37:35.277Z,0.37
2018-10-01T21:40:09.507Z,0.87
2018-10-01T21:42:38.429Z,0.87
2018-10-01T21:45:08.071Z,0.83
2018-10-01T21:47:37.026Z,0.70
2018-10-01T21:50:05.974Z,0.77
2018-10-01T21:52:34.937Z,1.03
2018-10-01T21:55:03.936Z,0.70
2018-10-01T21:57:32.912Z,0.77
2018-10-01T22:00:01.868Z,0.70
2018-10-01T22:02:30.822Z,0.60
2018-10-01T22:04:59.883Z,1.03
2018-10-01T22:07:28.966Z,0.93
2018-10-01T22:10:04.434Z,0.97
2018-10-01T22:12:33.531Z,0.47
2018-10-01T22:15:02.466Z,1.00
2018-10-01T22:17:31.444Z,0.57
2018-10-01T22:20:00.374Z,0.50
2018-10-01T22:22:29.297Z,0.93
2018-10-01T22:24:58.218Z,0.40
2018-10-01T22:27:27.820Z,1.00
2018-10-01T22:29:57.473Z,1.00
2018-10-01T22:32:27.447Z,1.03
2018-10-01T22:34:57.324Z,0.57
2018-10-01T22:37:26.857Z,0.57
2018-10-01T22:39:56.110Z,0.63
2018-10-01T22:42:25.070Z,0.67
2018-10-01T22:44:53.978Z,1.50
2018-10-01T22:47:23.676Z,0.93
2018-10-01T22:49:52.609Z,1.57
2018-10-01T22:52:21.649Z,0.70
2018-10-01T22:54:50.627Z,1.07
2018-10-01T22:57:19.555Z,1.73
2018-10-01T22:59:49.167Z,0.70
2018-10-01T23:02:18.091Z,0.73
2018-10-01T23:04:47.114Z,1.00
2018-10-01T23:07:16.084Z,0.90
2018-10-01T23:09:45.241Z,0.50
2018-10-01T23:12:14.168Z,0.80
2018-10-01T23:14:43.252Z,0.77
2018-10-01T23:17:12.130Z,0.83
2018-10-01T23:19:41.055Z,1.37
2018-10-01T23:22:09.958Z,0.80
2018-10-01T23:24:38.899Z,0.63
2018-10-01T23:27:07.770Z,1.33
2018-10-01T23:29:36.708Z,0.77
2018-10-01T23:32:05.720Z,0.80
2018-10-01T23:34:34.623Z,0.70
2018-10-01T23:37:03.501Z,1.13
2018-10-01T23:39:32.491Z,1.13
2018-10-01T23:42:01.362Z,0.70
2018-10-01T23:44:30.268Z,0.90
2018-10-01T23:46:59.181Z,0.80
2018-10-01T23:49:28.108Z,1.00
2018-10-01T23:51:57.011Z,0.90
2018-10-01T23:54:26.149Z,1.07
2018-10-01T23:56:55.087Z,1.03
2018-10-01T23:59:24.003Z,1.13
